Hauptseite
METAR-TAF:

METAR-TAF

Flughäfen :

Flughafen Clermont-Ferrand Auvergne

Clermont-Ferrand, Frankreich

Breite: 45-47N, Länge: 003-10E, Höhe: 332 m

Beobachtung

Neuester Wetterbericht von vor 31 Minuten, um 19:00 UTC
Wind 2 kt aus West/Südwest
Temperatur 11°C
Luftfeuchtigkeit 66%
Luftdruck 1023 hPa
Sichtweite 10 km oder mehr
keine Wolken unter 1500 m und keine Kumulonimbus oder Gewitterwolken

METAR: LFLC 211900Z AUTO 24002KT CAVOK 11/05 Q1023 NOSIG

Zeit: 21:31 (19:31 UTC)

Prognose

Neuester Wetterbericht von vor 5 Stunden und 31 Minuten, um 14:00 UTC
Gültige Prognose vom 21 um 15 UTC bis 22 um 15 UTC
Wind 5 kt aus Nord
Sichtweite 10 km oder mehr
keine Wolken unter 1500 m und keine Kumulonimbus oder Gewitterwolken

TAF: LFLC 211400Z 2115/2215 35005KT CAVOK

Wetterbeobachtungen und Prognosen von mehr als 4000 Flughäfen (METAR und TAF Bericht).

Die verfügbaren Stationen werden durch gelbe und rote Markierungen auf der Karte dargestellt.

Führen Sie die Maus auf sie, um den Namen der Station zu sehen.

Darauf klicken, um die Beobachtung von Wetterbeobachtungen und Prognosen zu sehen.

Um die Karte zu ändern : klicken Sie auf den grünen Tasten mit einem schwarzen Kreuz Zum Vergrößern, auf den grünen Button mit einem Gedankenstrich zu verkleinern, oder auf die grünen Pfeile für benachbarte Karten.


METAR-TAF: